Time;durP1;ratioP1;P1;durP2;ratioP2;P2;SDS_P1;SDS_P2;PMS_P1;PMS_P2;Temp;Humidity;BMP_temperature;BMP_pressure;BME280_temperature;BME280_humidity;BME280_pressure;Samples;Min_cycle;Max_cycle;Signal;HPM_P1;HPM_P2
2022/04/18 00:02:23;;;;;;;3.70;3.17;;;8.90;59.20;;;;;;6105480;23;20445;-78
2022/04/18 00:04:50;;;;;;;3.53;3.23;;;8.70;59.50;;;;;;6101348;23;20420;-80
2022/04/18 00:07:17;;;;;;;5.40;3.40;;;8.60;59.80;;;;;;6099756;23;20460;-81
2022/04/18 00:09:44;;;;;;;3.47;3.17;;;8.60;59.40;;;;;;6106998;23;20932;-78
2022/04/18 00:12:10;;;;;;;3.60;3.30;;;8.50;59.10;;;;;;6107708;23;20443;-80
2022/04/18 00:14:37;;;;;;;4.77;3.80;;;8.50;59.20;;;;;;6099716;23;20408;-82
2022/04/18 00:17:09;;;;;;;5.13;3.70;;;8.40;59.50;;;;;;6098915;23;20417;-82
2022/04/18 00:19:37;;;;;;;4.47;3.90;;;8.40;60.30;;;;;;6099272;23;20396;-82
2022/04/18 00:22:04;;;;;;;5.00;3.57;;;8.50;61.20;;;;;;6097870;23;20440;-82
2022/04/18 00:24:31;;;;;;;4.47;3.33;;;8.40;61.50;;;;;;6099305;23;20419;-82
2022/04/18 00:27:00;;;;;;;4.23;3.80;;;8.30;61.70;;;;;;6099168;23;20477;-82
2022/04/18 00:29:27;;;;;;;4.23;3.77;;;8.30;62.30;;;;;;6099593;23;20522;-82
2022/04/18 00:31:54;;;;;;;4.53;4.10;;;8.30;62.60;;;;;;6098879;23;20428;-82
2022/04/18 00:34:21;;;;;;;4.73;4.20;;;8.30;63.20;;;;;;6099671;23;20918;-81
2022/04/18 00:36:49;;;;;;;5.63;4.37;;;8.30;63.70;;;;;;6098749;23;20499;-82
2022/04/18 00:39:16;;;;;;;5.33;4.83;;;8.40;64.60;;;;;;6101563;23;20416;-81
2022/04/18 00:41:42;;;;;;;6.10;4.97;;;8.40;65.20;;;;;;6100569;23;20436;-81
2022/04/18 00:44:09;;;;;;;5.20;4.70;;;8.30;65.70;;;;;;6099332;23;20416;-81
2022/04/18 00:46:36;;;;;;;5.80;4.87;;;8.30;66.60;;;;;;6099700;23;20437;-79
2022/04/18 00:49:02;;;;;;;5.00;4.50;;;8.30;67.10;;;;;;6112516;23;20914;-81
2022/04/18 00:51:29;;;;;;;8.80;5.17;;;8.20;67.10;;;;;;6107459;23;20425;-80
2022/04/18 00:53:58;;;;;;;5.37;4.60;;;8.10;67.80;;;;;;6107454;23;20472;-81
2022/04/18 00:56:26;;;;;;;6.57;4.87;;;8.10;68.30;;;;;;6104272;23;20437;-80
2022/04/18 00:58:54;;;;;;;5.60;5.00;;;8.10;68.10;;;;;;6117080;23;20408;-80
2022/04/18 01:01:21;;;;;;;5.70;5.10;;;8.10;68.10;;;;;;6122781;23;20421;-80
2022/04/18 01:03:47;;;;;;;5.90;4.37;;;8.00;68.60;;;;;;6124266;23;20433;-78
2022/04/18 01:06:16;;;;;;;4.93;4.43;;;8.00;69.20;;;;;;6118453;23;20413;-78
2022/04/18 01:08:44;;;;;;;5.60;4.60;;;7.90;69.80;;;;;;6113379;23;20440;-81
2022/04/18 01:11:12;;;;;;;7.33;4.97;;;7.70;69.90;;;;;;6108765;23;20511;-81
2022/04/18 01:13:43;;;;;;;7.27;4.60;;;7.70;70.30;;;;;;6101247;23;20447;-81
2022/04/18 01:16:10;;;;;;;5.20;3.70;;;7.70;70.20;;;;;;6100667;23;20416;-80
2022/04/18 01:18:37;;;;;;;5.90;4.07;;;7.70;69.90;;;;;;6100228;23;20401;-79
2022/04/18 01:21:06;;;;;;;7.30;4.50;;;7.70;69.30;;;;;;6099595;23;20437;-80
2022/04/18 01:23:33;;;;;;;5.60;4.50;;;7.60;68.60;;;;;;6099440;23;20732;-80
2022/04/18 01:28:59;;;;;;;4.63;3.67;;;7.50;68.30;;;;;;6099020;23;20904;-80
2022/04/18 01:31:27;;;;;;;5.57;5.07;;;7.60;68.60;;;;;;6098344;23;20537;-80
2022/04/18 01:33:54;;;;;;;4.90;3.87;;;7.50;67.80;;;;;;6098260;23;20413;-80
2022/04/18 01:36:22;;;;;;;5.03;4.37;;;7.60;67.90;;;;;;6107339;23;20401;-79
2022/04/18 01:38:48;;;;;;;6.17;4.77;;;7.50;67.80;;;;;;6121569;23;20428;-79
2022/04/18 01:41:15;;;;;;;5.53;4.17;;;7.50;68.10;;;;;;6119150;23;20452;-80
2022/04/18 01:43:42;;;;;;;7.27;4.80;;;7.50;68.20;;;;;;6118267;23;20669;-80
2022/04/18 01:46:08;;;;;;;6.63;4.40;;;7.40;68.70;;;;;;6103487;23;20419;-80
2022/04/18 01:48:35;;;;;;;7.20;4.50;;;7.40;69.70;;;;;;6102211;23;20787;-81
2022/04/18 01:51:02;;;;;;;6.60;4.20;;;7.30;70.10;;;;;;6109302;23;20415;-81
2022/04/18 01:53:31;;;;;;;4.87;4.37;;;7.30;70.30;;;;;;6109644;23;20783;-80
2022/04/18 01:55:57;;;;;;;5.23;4.30;;;7.30;70.30;;;;;;6102349;23;20464;-81
2022/04/18 01:58:24;;;;;;;5.20;4.70;;;7.20;70.70;;;;;;6101508;23;20440;-81
2022/04/18 02:00:51;;;;;;;4.83;4.43;;;7.20;71.20;;;;;;6099560;23;20416;-82
2022/04/18 02:03:18;;;;;;;5.20;4.57;;;7.20;71.20;;;;;;6098660;23;20892;-82
2022/04/18 02:05:46;;;;;;;8.13;4.67;;;7.20;71.30;;;;;;6108524;23;20409;-79
2022/04/18 02:08:13;;;;;;;6.90;5.00;;;7.10;71.80;;;;;;6108654;23;20479;-82
2022/04/18 02:10:41;;;;;;;4.90;4.50;;;7.10;72.40;;;;;;6101164;23;20408;-80
2022/04/18 02:13:09;;;;;;;5.73;5.07;;;7.10;72.80;;;;;;6098845;23;20433;-83
2022/04/18 02:15:35;;;;;;;4.90;4.40;;;7.10;72.40;;;;;;6097980;23;20412;-83
2022/04/18 02:18:02;;;;;;;5.47;5.00;;;7.10;72.30;;;;;;6098293;23;20416;-83
2022/04/18 02:20:29;;;;;;;4.80;4.30;;;7.10;72.00;;;;;;6098445;23;20417;-82
2022/04/18 02:22:56;;;;;;;7.67;4.93;;;7.10;72.40;;;;;;6101174;23;20491;-81
2022/04/18 02:25:23;;;;;;;5.13;4.63;;;7.00;72.90;;;;;;6111414;23;20408;-82
2022/04/18 02:27:52;;;;;;;7.17;4.63;;;7.10;73.70;;;;;;6098123;23;20408;-83
2022/04/18 02:30:19;;;;;;;5.53;5.00;;;6.90;73.60;;;;;;6098013;23;20485;-81
2022/04/18 02:32:48;;;;;;;7.80;5.53;;;6.90;74.20;;;;;;6098051;23;20451;-81
2022/04/18 02:35:16;;;;;;;5.17;4.40;;;6.80;74.70;;;;;;6098999;23;20416;-83
2022/04/18 02:37:42;;;;;;;6.37;4.47;;;6.70;75.10;;;;;;6098789;23;20440;-81
2022/04/18 02:40:10;;;;;;;8.80;4.60;;;6.70;75.80;;;;;;6098392;23;20451;-82
2022/04/18 02:42:37;;;;;;;5.23;4.73;;;6.70;76.00;;;;;;6113546;23;20440;-79
2022/04/18 02:45:06;;;;;;;5.80;5.20;;;6.70;76.00;;;;;;6104387;23;20471;-82
2022/04/18 02:47:32;;;;;;;5.93;5.27;;;6.60;75.90;;;;;;6098713;23;20416;-82
2022/04/18 02:49:59;;;;;;;6.93;5.17;;;6.60;76.00;;;;;;6099604;23;20415;-80
2022/04/18 02:52:26;;;;;;;4.57;4.17;;;6.60;76.50;;;;;;6102500;23;20424;-82
2022/04/18 02:54:52;;;;;;;5.70;5.07;;;6.50;76.60;;;;;;6100206;23;20411;-81
2022/04/18 02:57:19;;;;;;;5.77;5.20;;;6.50;76.50;;;;;;6099123;23;20467;-82
2022/04/18 02:59:46;;;;;;;7.00;5.80;;;6.40;76.70;;;;;;6099683;23;20444;-81
2022/04/18 03:02:14;;;;;;;5.20;4.63;;;6.40;77.10;;;;;;6107603;23;20775;-79
2022/04/18 03:04:40;;;;;;;4.33;4.03;;;6.40;77.30;;;;;;6106321;23;20409;-82
2022/04/18 03:07:07;;;;;;;5.87;5.27;;;6.30;77.40;;;;;;6098739;23;20404;-82
2022/04/18 03:09:34;;;;;;;9.73;5.23;;;6.30;77.70;;;;;;6097677;23;20407;-81
2022/04/18 03:12:02;;;;;;;6.70;4.73;;;6.30;78.20;;;;;;6097396;23;20428;-82
2022/04/18 03:14:29;;;;;;;5.27;4.77;;;6.30;78.40;;;;;;6097504;23;20506;-82
2022/04/18 03:16:55;;;;;;;6.60;5.00;;;6.20;79.30;;;;;;6106187;23;20412;-82
2022/04/18 03:19:24;;;;;;;4.90;4.50;;;6.30;78.70;;;;;;6114528;23;20788;-80
2022/04/18 03:21:50;;;;;;;5.40;4.90;;;6.20;78.20;;;;;;6107172;23;20479;-81
2022/04/18 03:24:17;;;;;;;4.50;4.10;;;6.30;78.20;;;;;;6103059;23;20417;-82
2022/04/18 03:26:45;;;;;;;5.63;4.80;;;6.20;77.80;;;;;;6100864;23;20408;-82
2022/04/18 03:29:11;;;;;;;6.53;4.23;;;6.20;78.40;;;;;;6112335;23;20411;-79
2022/04/18 03:31:38;;;;;;;6.03;5.43;;;6.10;78.80;;;;;;6116473;23;20434;-80
2022/04/18 03:34:05;;;;;;;5.60;5.10;;;6.10;79.20;;;;;;6100860;23;20410;-81
2022/04/18 03:42:02;;;;;;;5.03;4.63;;;5.90;79.60;;;;;;6110902;23;20459;-82
2022/04/18 03:44:28;;;;;;;7.10;5.63;;;5.80;80.10;;;;;;6109712;23;20408;-82
2022/04/18 03:46:55;;;;;;;4.93;4.50;;;5.80;80.60;;;;;;6107481;23;20418;-80
2022/04/18 03:49:21;;;;;;;6.20;4.53;;;5.90;80.60;;;;;;6101819;23;20408;-82
2022/04/18 03:51:49;;;;;;;5.70;4.40;;;5.80;80.70;;;;;;6100067;23;20436;-82
2022/04/18 03:54:16;;;;;;;4.50;4.10;;;5.80;80.60;;;;;;6100383;23;20408;-82
2022/04/18 03:56:43;;;;;;;6.87;4.77;;;5.80;80.60;;;;;;6099557;23;20412;-80
2022/04/18 03:59:10;;;;;;;5.53;5.03;;;5.70;80.30;;;;;;6099618;23;20440;-82
2022/04/18 04:01:36;;;;;;;5.37;4.87;;;5.70;80.80;;;;;;6100237;23;20518;-81
2022/04/18 04:04:03;;;;;;;5.63;5.00;;;5.70;80.90;;;;;;6110422;23;20995;-81
2022/04/18 04:06:30;;;;;;;5.20;4.70;;;5.80;81.30;;;;;;6099140;23;20452;-81
2022/04/18 04:08:58;;;;;;;5.80;5.17;;;5.90;81.20;;;;;;6099703;23;20440;-81
2022/04/18 04:11:25;;;;;;;4.23;3.83;;;5.80;80.90;;;;;;6110274;23;20742;-81
2022/04/18 04:13:52;;;;;;;4.63;4.23;;;5.80;80.70;;;;;;6112379;23;20408;-81
2022/04/18 04:16:20;;;;;;;5.50;4.53;;;5.70;80.90;;;;;;6103199;23;20420;-82
2022/04/18 04:18:47;;;;;;;4.90;4.50;;;5.60;81.20;;;;;;6099815;23;20450;-82
2022/04/18 04:21:13;;;;;;;5.67;4.70;;;5.50;81.60;;;;;;6100277;23;20440;-81
2022/04/18 04:23:40;;;;;;;5.20;4.70;;;5.40;82.50;;;;;;6101194;23;20415;-82
2022/04/18 04:26:08;;;;;;;6.90;5.80;;;5.30;83.30;;;;;;6101173;23;20411;-82
2022/04/18 04:28:35;;;;;;;6.13;5.47;;;5.30;84.30;;;;;;6111351;23;20439;-79
2022/04/18 04:31:03;;;;;;;5.47;4.97;;;5.30;84.80;;;;;;6105288;23;20404;-81
2022/04/18 04:33:31;;;;;;;5.57;4.30;;;5.40;85.00;;;;;;6100877;23;20499;-81
2022/04/18 04:35:58;;;;;;;4.80;4.40;;;5.40;85.00;;;;;;6099077;23;20407;-81
2022/04/18 04:38:25;;;;;;;4.80;4.30;;;5.40;85.40;;;;;;6098183;23;20408;-81
2022/04/18 04:40:53;;;;;;;5.63;4.63;;;5.40;85.30;;;;;;6098281;23;20443;-81
2022/04/18 04:43:21;;;;;;;5.63;4.57;;;5.40;85.40;;;;;;6139900;23;20518;-86
2022/04/18 04:45:48;;;;;;;5.53;5.07;;;5.20;85.50;;;;;;6149591;23;20410;-86
2022/04/18 04:48:15;;;;;;;5.70;4.90;;;5.30;87.20;;;;;;6138808;23;20408;-86
2022/04/18 04:50:41;;;;;;;6.00;4.70;;;5.30;87.30;;;;;;6150036;23;20414;-85
2022/04/18 04:53:08;;;;;;;5.27;4.77;;;5.20;87.50;;;;;;6113649;23;20431;-86
2022/04/18 04:55:37;;;;;;;5.43;4.93;;;5.30;87.50;;;;;;6113799;23;20396;-86
2022/04/18 04:58:04;;;;;;;7.90;5.23;;;5.40;87.30;;;;;;6124323;23;20417;-85
2022/04/18 05:00:32;;;;;;;5.47;4.97;;;5.40;87.10;;;;;;6123644;23;20447;-86
2022/04/18 05:02:59;;;;;;;5.77;5.23;;;5.50;87.30;;;;;;6123878;23;20421;-85
2022/04/18 05:05:25;;;;;;;5.93;5.27;;;5.50;87.40;;;;;;6123570;23;20401;-85
2022/04/18 05:07:52;;;;;;;5.60;5.10;;;5.70;87.00;;;;;;6124126;23;20408;-86
2022/04/18 05:10:19;;;;;;;8.63;5.10;;;6.10;85.80;;;;;;6121732;23;20400;-85
2022/04/18 05:12:45;;;;;;;5.93;5.43;;;6.60;83.40;;;;;;6122957;23;20419;-86
2022/04/18 05:15:12;;;;;;;5.30;4.80;;;7.00;81.40;;;;;;6122335;23;20479;-85
2022/04/18 05:17:40;;;;;;;5.30;4.57;;;7.50;79.10;;;;;;6122560;23;20405;-86
2022/04/18 05:20:09;;;;;;;5.73;5.07;;;7.90;76.60;;;;;;6101438;23;20441;-87
2022/04/18 05:22:36;;;;;;;6.20;5.60;;;8.10;74.40;;;;;;6098394;23;20753;-86
2022/04/18 05:25:03;;;;;;;6.03;5.47;;;7.80;73.90;;;;;;6098141;23;20877;-86
2022/04/18 05:27:30;;;;;;;6.80;6.00;;;7.70;74.30;;;;;;6097676;23;20413;-87
2022/04/18 05:29:57;;;;;;;8.27;5.43;;;7.60;75.40;;;;;;6097781;23;20408;-87
2022/04/18 05:32:23;;;;;;;5.57;5.17;;;7.80;75.50;;;;;;6099475;23;20432;-87
2022/04/18 05:34:52;;;;;;;6.53;5.93;;;7.70;74.20;;;;;;6101081;23;20991;-87
2022/04/18 05:37:18;;;;;;;7.23;5.80;;;7.50;74.20;;;;;;6101279;23;20404;-87
2022/04/18 05:39:45;;;;;;;8.43;6.03;;;7.40;75.20;;;;;;6100770;23;20444;-87
2022/04/18 05:42:12;;;;;;;5.90;5.20;;;7.40;75.50;;;;;;6100437;23;20765;-86
2022/04/18 05:44:38;;;;;;;7.97;5.50;;;7.60;75.30;;;;;;6123390;23;20381;-85
2022/04/18 05:47:05;;;;;;;6.10;5.60;;;7.90;75.20;;;;;;6123680;23;20519;-86
2022/04/18 05:49:32;;;;;;;6.33;5.73;;;7.80;73.90;;;;;;6108789;23;20424;-87
2022/04/18 05:52:00;;;;;;;7.90;7.10;;;7.60;74.00;;;;;;6099427;23;20435;-87
2022/04/18 05:54:27;;;;;;;7.43;6.27;;;7.60;74.40;;;;;;6116647;23;20385;-87
2022/04/18 05:56:55;;;;;;;9.30;7.30;;;7.70;74.80;;;;;;6118074;23;20491;-87
2022/04/18 05:59:21;;;;;;;7.70;6.60;;;8.10;74.70;;;;;;6097766;23;20436;-88
2022/04/18 06:01:48;;;;;;;7.37;6.30;;;8.60;73.60;;;;;;6097301;23;20952;-87
2022/04/18 06:04:15;;;;;;;6.03;5.43;;;8.80;71.90;;;;;;6099119;23;20392;-87
2022/04/18 06:06:41;;;;;;;6.93;6.23;;;8.90;70.60;;;;;;6097729;23;20989;-87
2022/04/18 06:09:09;;;;;;;6.77;6.17;;;8.90;70.40;;;;;;6097777;23;20405;-87
2022/04/18 06:11:36;;;;;;;9.83;6.87;;;8.90;70.60;;;;;;6097348;23;20759;-87
2022/04/18 06:14:03;;;;;;;8.33;6.40;;;9.10;70.90;;;;;;6097999;23;20744;-86
2022/04/18 06:16:31;;;;;;;6.43;5.93;;;10.00;68.90;;;;;;6117044;23;20393;-85
2022/04/18 06:18:58;;;;;;;6.07;5.57;;;11.10;65.40;;;;;;6109559;23;20436;-87
2022/04/18 06:21:25;;;;;;;5.67;5.13;;;12.30;61.10;;;;;;6097477;23;20401;-89
2022/04/18 06:23:51;;;;;;;6.87;6.20;;;13.20;58.10;;;;;;6097324;23;20409;-87
2022/04/18 06:26:19;;;;;;;6.73;5.77;;;14.00;54.70;;;;;;6097139;23;20415;-88
2022/04/18 06:28:46;;;;;;;6.63;5.67;;;15.20;53.40;;;;;;6096783;23;20442;-88
2022/04/18 06:31:13;;;;;;;6.70;6.00;;;16.10;50.10;;;;;;6097262;23;20441;-87
2022/04/18 06:33:39;;;;;;;6.20;5.60;;;16.70;48.10;;;;;;6097280;23;20469;-87
2022/04/18 06:36:06;;;;;;;6.50;5.40;;;16.40;46.20;;;;;;6097494;23;20419;-88
2022/04/18 06:38:33;;;;;;;4.97;4.60;;;16.60;45.80;;;;;;6106556;23;20420;-86
2022/04/18 06:41:01;;;;;;;6.30;5.70;;;16.80;44.80;;;;;;6124621;23;20452;-87
2022/04/18 06:43:29;;;;;;;6.13;5.63;;;17.10;44.80;;;;;;6110332;23;20458;-87
2022/04/18 06:45:56;;;;;;;5.80;5.40;;;17.60;44.40;;;;;;6100975;23;20426;-87
2022/04/18 06:48:23;;;;;;;6.37;5.10;;;18.00;43.30;;;;;;6098246;23;20420;-86
2022/04/18 06:50:50;;;;;;;7.30;6.00;;;18.30;42.70;;;;;;6097570;23;20488;-87
2022/04/18 06:53:16;;;;;;;6.73;5.87;;;18.40;42.20;;;;;;6097204;23;20436;-87
2022/04/18 06:58:29;;;;;;;6.10;5.60;;;19.20;42.10;;;;;;6121709;23;20390;-87
2022/04/18 07:00:56;;;;;;;6.57;5.90;;;20.10;41.60;;;;;;6101929;23;20512;-87
2022/04/18 07:03:22;;;;;;;6.20;5.60;;;20.30;40.10;;;;;;6103629;23;20431;-88
2022/04/18 07:05:50;;;;;;;6.43;5.83;;;20.50;39.80;;;;;;6103091;23;20937;-87
2022/04/18 07:08:19;;;;;;;5.47;4.83;;;20.60;39.70;;;;;;6073469;23;20892;-87
2022/04/18 07:10:47;;;;;;;5.60;5.00;;;20.80;38.40;;;;;;6099308;23;20788;-87
2022/04/18 07:13:14;;;;;;;5.43;4.93;;;21.60;38.20;;;;;;6098981;23;20459;-88
2022/04/18 07:15:42;;;;;;;5.13;4.70;;;21.90;36.60;;;;;;6098554;23;20421;-87
2022/04/18 07:18:09;;;;;;;5.10;4.70;;;22.40;35.40;;;;;;6099199;23;20460;-87
2022/04/18 07:20:36;;;;;;;5.20;4.80;;;22.70;35.20;;;;;;6106710;23;20398;-88
2022/04/18 07:23:03;;;;;;;4.90;4.50;;;23.00;34.30;;;;;;6124784;23;20422;-86
2022/04/18 07:25:29;;;;;;;5.63;5.00;;;23.20;33.70;;;;;;6125286;23;20502;-86
2022/04/18 07:27:56;;;;;;;4.60;4.30;;;23.40;33.40;;;;;;6122802;23;20403;-88
2022/04/18 07:30:23;;;;;;;5.33;4.80;;;23.70;33.20;;;;;;6099022;23;20436;-87
2022/04/18 07:32:51;;;;;;;5.60;5.00;;;24.10;32.90;;;;;;6115368;23;20408;-87
2022/04/18 07:35:17;;;;;;;5.83;4.90;;;23.90;32.30;;;;;;6123477;23;20398;-87
2022/04/18 07:40:25;;;;;;;5.20;4.70;;;24.20;32.00;;;;;;6121383;23;20431;-87
2022/04/18 07:42:51;;;;;;;4.80;4.40;;;23.40;32.50;;;;;;6123424;23;20423;-87
2022/04/18 07:45:18;;;;;;;5.47;5.07;;;21.00;34.70;;;;;;6121616;23;20415;-87
2022/04/18 07:47:45;;;;;;;5.37;4.83;;;20.30;36.90;;;;;;6117351;23;20428;-87
2022/04/18 07:50:13;;;;;;;5.50;5.10;;;21.50;35.60;;;;;;6124273;23;20437;-86
2022/04/18 07:52:40;;;;;;;5.73;5.23;;;21.30;34.80;;;;;;6124584;23;20409;-87
2022/04/18 07:55:07;;;;;;;4.80;4.37;;;21.70;34.70;;;;;;6119607;23;20397;-87
2022/04/18 07:57:34;;;;;;;5.40;4.67;;;21.70;34.90;;;;;;6116448;23;20916;-87
2022/04/18 08:00:01;;;;;;;4.80;4.30;;;20.90;35.40;;;;;;6108876;23;20409;-87
2022/04/18 08:02:28;;;;;;;5.60;5.10;;;20.40;35.50;;;;;;6122448;23;20408;-86
2022/04/18 08:04:54;;;;;;;5.60;5.10;;;20.50;35.90;;;;;;6118923;23;20440;-86
2022/04/18 08:07:22;;;;;;;5.60;5.00;;;20.40;35.90;;;;;;6113623;23;20398;-87
2022/04/18 08:09:50;;;;;;;5.20;4.80;;;20.10;36.40;;;;;;6123531;23;20488;-86
2022/04/18 08:12:17;;;;;;;5.53;4.80;;;20.00;36.40;;;;;;6107289;23;20464;-87
2022/04/18 08:14:44;;;;;;;5.17;4.67;;;20.60;36.30;;;;;;6101115;23;20399;-88
2022/04/18 08:17:11;;;;;;;5.70;5.20;;;21.70;35.30;;;;;;6100584;23;20421;-88
2022/04/18 08:19:39;;;;;;;6.03;5.53;;;23.10;34.10;;;;;;6099786;23;20407;-88
2022/04/18 08:22:06;;;;;;;5.80;5.30;;;24.10;32.70;;;;;;6099195;23;20435;-88
2022/04/18 08:24:34;;;;;;;5.43;4.93;;;25.00;31.30;;;;;;6099133;23;20912;-89
2022/04/18 08:27:01;;;;;;;5.40;4.77;;;26.00;30.20;;;;;;6098672;23;20900;-88
2022/04/18 08:29:28;;;;;;;6.80;6.30;;;25.90;29.90;;;;;;6100572;23;20806;-88
2022/04/18 08:31:54;;;;;;;5.63;5.13;;;26.00;29.50;;;;;;6102636;23;20989;-89
2022/04/18 08:34:21;;;;;;;4.67;4.27;;;26.30;29.50;;;;;;6100577;23;20413;-89
2022/04/18 08:36:48;;;;;;;5.00;4.60;;;26.80;29.30;;;;;;6097888;23;20413;-89
2022/04/18 08:39:15;;;;;;;5.07;4.63;;;27.00;29.00;;;;;;6098020;23;20410;-89
2022/04/18 08:41:45;;;;;;;4.93;4.43;;;25.90;29.10;;;;;;6097160;23;20433;-89
2022/04/18 08:44:13;;;;;;;4.90;4.50;;;26.40;29.40;;;;;;6096876;23;20892;-89
2022/04/18 08:46:41;;;;;;;5.63;5.13;;;26.20;28.70;;;;;;6109248;23;20445;-89
2022/04/18 08:54:40;;;;;;;5.10;4.47;;;27.60;27.80;;;;;;6096696;23;20385;-90
2022/04/18 08:57:08;;;;;;;6.00;5.57;;;28.40;27.40;;;;;;6095774;23;20399;-89
2022/04/18 08:59:35;;;;;;;4.63;4.20;;;28.70;27.00;;;;;;6098351;23;20408;-90
2022/04/18 09:02:02;;;;;;;4.47;4.07;;;30.00;26.70;;;;;;6097539;23;20420;-89
2022/04/18 09:04:30;;;;;;;8.17;4.90;;;30.60;26.20;;;;;;6097762;23;20412;-87
2022/04/18 09:07:07;;;;;;;4.40;4.00;;;30.20;25.70;;;;;;6101926;23;20420;-88
2022/04/18 09:09:37;;;;;;;4.90;4.50;;;30.30;25.10;;;;;;6099657;23;20400;-88
2022/04/18 09:12:04;;;;;;;4.27;3.87;;;30.40;25.50;;;;;;6097153;23;20455;-88
2022/04/18 09:14:35;;;;;;;4.70;4.30;;;30.00;25.70;;;;;;6097107;23;20420;-88
2022/04/18 09:17:02;;;;;;;6.37;5.07;;;28.90;25.90;;;;;;6096332;23;20821;-89
2022/04/18 09:19:33;;;;;;;4.50;4.20;;;27.00;26.50;;;;;;6096752;23;20400;-89
2022/04/18 09:22:03;;;;;;;4.90;3.90;;;27.30;27.20;;;;;;6096742;23;20432;-88
2022/04/18 09:24:35;;;;;;;5.73;4.00;;;28.40;26.50;;;;;;6097477;23;20406;-86
2022/04/18 09:27:07;;;;;;;4.07;3.77;;;28.10;26.30;;;;;;6097086;23;20456;-84
2022/04/18 09:29:38;;;;;;;4.03;3.73;;;27.70;26.50;;;;;;6097153;23;20407;-85
2022/04/18 09:32:08;;;;;;;4.57;4.17;;;27.00;26.40;;;;;;6098587;23;20472;-87
2022/04/18 09:34:37;;;;;;;4.87;4.20;;;26.90;26.90;;;;;;6122162;23;20396;-85
2022/04/18 09:37:11;;;;;;;5.17;4.53;;;27.10;26.70;;;;;;6121685;23;20396;-87
2022/04/18 09:39:38;;;;;;;5.07;4.67;;;25.90;27.80;;;;;;6124246;23;20415;-87
2022/04/18 09:42:12;;;;;;;4.83;4.43;;;25.90;28.00;;;;;;6122148;23;20416;-87
2022/04/18 09:44:42;;;;;;;4.33;3.93;;;26.40;27.30;;;;;;6109846;23;20472;-85
2022/04/18 09:47:15;;;;;;;4.20;3.90;;;27.70;26.80;;;;;;6107796;23;20461;-87
2022/04/18 09:49:42;;;;;;;4.20;3.90;;;28.50;26.20;;;;;;6124334;23;20397;-88
2022/04/18 09:52:12;;;;;;;4.80;4.40;;;28.10;25.60;;;;;;6116056;23;20513;-87
2022/04/18 09:54:44;;;;;;;5.00;4.60;;;26.50;26.50;;;;;;6120909;23;20413;-84
2022/04/18 09:57:14;;;;;;;4.60;4.30;;;25.30;27.90;;;;;;6122691;23;20377;-89
2022/04/18 09:59:42;;;;;;;5.03;4.53;;;25.70;27.90;;;;;;6120985;23;20413;-86
2022/04/18 10:02:13;;;;;;;4.33;3.93;;;26.30;27.80;;;;;;6110992;23;20424;-85
2022/04/18 10:04:41;;;;;;;4.40;3.83;;;27.00;27.10;;;;;;6123861;23;20389;-88
2022/04/18 10:07:23;;;;;;;4.40;3.80;;;28.30;26.70;;;;;;6123040;23;20468;-89
2022/04/18 10:09:51;;;;;;;4.40;4.00;;;28.70;26.20;;;;;;6120847;23;20421;-89
2022/04/18 10:12:20;;;;;;;4.37;4.00;;;29.10;25.20;;;;;;6114158;23;20446;-87
2022/04/18 10:14:51;;;;;;;4.40;4.00;;;27.50;26.20;;;;;;6104839;23;20419;-87
2022/04/18 10:17:31;;;;;;;4.60;4.20;;;27.50;26.40;;;;;;6110894;23;20394;-85
2022/04/18 10:20:14;;;;;;;4.07;3.70;;;26.70;26.60;;;;;;6102413;23;20427;-85
2022/04/18 10:23:07;;;;;;;5.07;4.23;;;26.70;27.30;;;;;;6103094;23;20466;-87
2022/04/18 10:25:50;;;;;;;4.30;3.90;;;28.80;26.10;;;;;;6098719;23;20733;-88
2022/04/18 10:28:18;;;;;;;6.13;4.80;;;29.50;25.30;;;;;;6100210;23;20427;-86
2022/04/18 10:30:50;;;;;;;3.97;3.67;;;28.60;25.80;;;;;;6100872;23;20427;-86
2022/04/18 10:33:18;;;;;;;5.23;4.77;;;27.30;25.70;;;;;;6100894;23;20781;-85
2022/04/18 10:35:53;;;;;;;4.90;4.40;;;28.00;26.20;;;;;;6099973;23;20442;-85
2022/04/18 10:38:23;;;;;;;4.07;3.77;;;28.10;26.10;;;;;;6103349;23;20929;-86
2022/04/18 10:40:50;;;;;;;4.23;3.90;;;28.30;26.10;;;;;;6116769;23;20465;-86
2022/04/18 10:43:17;;;;;;;4.20;3.80;;;28.40;25.50;;;;;;6119664;23;20450;-86
2022/04/18 10:45:43;;;;;;;4.57;3.83;;;29.30;25.20;;;;;;6115546;23;20405;-86
2022/04/18 10:48:13;;;;;;;4.33;4.03;;;28.60;24.90;;;;;;6108562;23;20463;-84
2022/04/18 10:50:43;;;;;;;3.70;3.40;;;27.40;25.90;;;;;;6131436;23;20481;-84
2022/04/18 10:53:19;;;;;;;4.27;3.73;;;28.90;25.50;;;;;;6128173;23;20395;-84
2022/04/18 10:56:12;;;;;;;4.67;4.27;;;30.30;24.50;;;;;;6127465;23;20447;-83
2022/04/18 10:58:44;;;;;;;4.60;4.10;;;29.00;24.90;;;;;;6110334;23;20428;-84
2022/04/18 11:01:11;;;;;;;5.07;3.50;;;30.00;25.10;;;;;;6097569;23;20399;-82
2022/04/18 11:03:46;;;;;;;5.10;4.67;;;29.90;24.80;;;;;;6098249;23;20420;-84
2022/04/18 11:06:50;;;;;;;3.57;3.27;;;29.00;25.10;;;;;;6097084;23;20436;-84
2022/04/18 11:09:20;;;;;;;4.77;4.23;;;27.00;26.30;;;;;;6106183;23;20472;-84
2022/04/18 11:11:51;;;;;;;3.83;3.53;;;27.90;26.20;;;;;;6109275;23;20457;-82
2022/04/18 11:14:20;;;;;;;4.00;3.70;;;29.20;25.40;;;;;;6100867;23;20754;-83
2022/04/18 11:16:55;;;;;;;5.00;4.23;;;28.50;24.80;;;;;;6110367;23;20397;-83
2022/04/18 11:19:25;;;;;;;5.03;4.00;;;29.80;24.90;;;;;;6121468;23;20416;-84
2022/04/18 11:22:17;;;;;;;4.80;3.93;;;30.10;24.80;;;;;;6108430;23;20408;-84
2022/04/18 11:24:55;;;;;;;4.80;4.00;;;30.80;23.80;;;;;;6110713;23;20852;-86
2022/04/18 11:27:24;;;;;;;4.13;3.83;;;31.20;23.60;;;;;;6110784;23;20440;-85
2022/04/18 11:29:53;;;;;;;4.47;4.07;;;31.40;23.80;;;;;;6107404;23;20420;-85
2022/04/18 11:32:21;;;;;;;4.10;3.80;;;31.40;23.60;;;;;;6101442;23;20428;-85
2022/04/18 11:34:52;;;;;;;3.90;3.60;;;30.90;23.80;;;;;;6101593;23;20937;-85
2022/04/18 11:37:23;;;;;;;4.27;3.93;;;31.80;23.70;;;;;;6104742;23;20440;-86
2022/04/18 11:39:51;;;;;;;3.60;3.30;;;31.80;23.20;;;;;;6105675;23;20573;-86
2022/04/18 11:42:20;;;;;;;3.53;3.23;;;32.20;23.60;;;;;;6108916;23;20420;-86
2022/04/18 11:44:48;;;;;;;3.80;3.50;;;32.80;23.20;;;;;;6107201;23;20400;-85
2022/04/18 11:47:16;;;;;;;3.90;3.60;;;33.00;22.40;;;;;;6103818;23;20627;-84
2022/04/18 11:49:45;;;;;;;5.80;3.77;;;33.00;22.60;;;;;;6104794;23;20397;-85
2022/04/18 11:52:20;;;;;;;4.40;4.10;;;32.40;22.50;;;;;;6110165;23;20444;-84
2022/04/18 11:55:01;;;;;;;3.77;3.47;;;33.40;22.20;;;;;;6112063;23;20488;-85
2022/04/18 11:57:29;;;;;;;3.30;3.10;;;33.40;22.40;;;;;;6109906;23;20404;-86
2022/04/18 11:59:57;;;;;;;5.93;3.60;;;33.40;21.60;;;;;;6114458;23;20416;-85
2022/04/18 12:08:00;;;;;;;4.10;3.70;;;31.10;23.10;;;;;;6123712;23;20567;-85
2022/04/18 12:10:29;;;;;;;3.67;3.37;;;30.90;23.10;;;;;;6116478;23;20416;-86
2022/04/18 12:12:56;;;;;;;3.90;3.47;;;30.50;22.80;;;;;;6110030;23;20539;-84
2022/04/18 12:15:24;;;;;;;3.90;3.37;;;30.00;23.60;;;;;;6112771;23;20397;-85
2022/04/18 12:17:52;;;;;;;3.70;3.40;;;30.10;23.60;;;;;;6111572;23;20489;-86
2022/04/18 12:20:23;;;;;;;3.33;3.03;;;30.30;24.40;;;;;;6111291;23;20411;-86
2022/04/18 12:22:52;;;;;;;3.97;3.60;;;31.50;23.40;;;;;;6117722;23;20372;-87
2022/04/18 12:25:28;;;;;;;4.20;3.80;;;31.70;22.70;;;;;;6114779;23;20405;-84
2022/04/18 12:27:56;;;;;;;4.43;3.90;;;32.20;22.50;;;;;;6114079;23;20432;-85
2022/04/18 12:30:23;;;;;;;4.13;3.73;;;32.20;22.10;;;;;;6112404;23;20405;-85
2022/04/18 12:32:50;;;;;;;4.03;3.73;;;30.40;23.10;;;;;;6114624;23;20441;-85
2022/04/18 12:35:32;;;;;;;3.77;3.47;;;30.60;23.60;;;;;;6110300;23;20900;-86
2022/04/18 12:38:02;;;;;;;4.17;3.33;;;32.40;22.80;;;;;;6111120;23;20429;-86
2022/04/18 12:40:36;;;;;;;3.40;3.10;;;31.10;22.50;;;;;;6109975;23;20409;-85
2022/04/18 12:43:07;;;;;;;4.67;3.77;;;31.30;23.10;;;;;;6108686;23;20385;-86
2022/04/18 12:45:45;;;;;;;3.97;3.67;;;31.50;22.50;;;;;;6109335;23;20421;-85
2022/04/18 12:48:12;;;;;;;5.40;3.57;;;32.50;22.30;;;;;;6108460;23;20436;-86
2022/04/18 12:50:39;;;;;;;3.77;3.40;;;31.70;22.30;;;;;;6109721;23;20418;-85
2022/04/18 12:53:06;;;;;;;3.60;3.23;;;31.10;22.90;;;;;;6111087;23;20436;-85
2022/04/18 12:55:33;;;;;;;7.60;3.30;;;30.80;22.60;;;;;;6117152;23;20415;-86
2022/04/18 12:58:01;;;;;;;4.13;3.00;;;30.10;23.50;;;;;;6108418;23;20543;-85
2022/04/18 13:00:35;;;;;;;3.27;2.97;;;29.70;23.20;;;;;;6108504;23;20407;-86
2022/04/18 13:03:04;;;;;;;3.30;2.90;;;29.90;24.00;;;;;;6108039;23;20404;-85
2022/04/18 13:05:32;;;;;;;2.77;2.57;;;30.30;23.60;;;;;;6109065;23;20435;-86
2022/04/18 13:08:02;;;;;;;4.23;3.63;;;28.90;23.90;;;;;;6107425;23;20426;-85
2022/04/18 13:10:31;;;;;;;4.67;3.43;;;28.40;24.80;;;;;;6111669;23;20413;-85
2022/04/18 13:13:07;;;;;;;4.27;3.97;;;28.50;24.30;;;;;;6113127;23;20432;-85
2022/04/18 13:15:34;;;;;;;3.40;3.10;;;29.20;23.90;;;;;;6123565;23;20396;-87
2022/04/18 13:18:04;;;;;;;5.83;5.43;;;29.50;23.80;;;;;;6111364;23;20459;-85
2022/04/18 13:20:31;;;;;;;3.77;3.07;;;29.60;23.70;;;;;;6115482;23;20408;-85
2022/04/18 13:22:58;;;;;;;4.07;3.70;;;29.10;23.80;;;;;;6108395;23;20405;-85